sensor_id;sensor_type;location;lat;lon;timestamp;temperature;humidity
43089;DHT22;28709;52.030;5.652;2024-02-04T00:00:43;10.00;99.90
43089;DHT22;28709;52.030;5.652;2024-02-04T00:03:08;10.00;99.90
43089;DHT22;28709;52.030;5.652;2024-02-04T00:05:34;10.00;99.90
43089;DHT22;28709;52.030;5.652;2024-02-04T00:08:00;10.00;99.90
43089;DHT22;28709;52.030;5.652;2024-02-04T00:10:25;10.00;99.90
43089;DHT22;28709;52.030;5.652;2024-02-04T00:12:52;10.00;99.90
43089;DHT22;28709;52.030;5.652;2024-02-04T00:15:17;10.00;99.90
43089;DHT22;28709;52.030;5.652;2024-02-04T00:17:44;10.00;99.90
43089;DHT22;28709;52.030;5.652;2024-02-04T00:20:10;10.00;99.90
43089;DHT22;28709;52.030;5.652;2024-02-04T00:22:36;10.00;99.90
43089;DHT22;28709;52.030;5.652;2024-02-04T00:25:02;10.00;99.90
43089;DHT22;28709;52.030;5.652;2024-02-04T00:27:33;10.00;99.90
43089;DHT22;28709;52.030;5.652;2024-02-04T00:29:59;9.90;99.90
43089;DHT22;28709;52.030;5.652;2024-02-04T00:32:25;9.90;99.90
43089;DHT22;28709;52.030;5.652;2024-02-04T00:34:51;10.00;99.90
43089;DHT22;28709;52.030;5.652;2024-02-04T00:37:17;10.00;99.90
43089;DHT22;28709;52.030;5.652;2024-02-04T00:39:43;10.00;99.90
43089;DHT22;28709;52.030;5.652;2024-02-04T00:42:08;10.00;99.90
43089;DHT22;28709;52.030;5.652;2024-02-04T00:44:34;10.00;99.90
43089;DHT22;28709;52.030;5.652;2024-02-04T00:47:00;10.00;99.90
43089;DHT22;28709;52.030;5.652;2024-02-04T00:49:25;10.00;99.90
43089;DHT22;28709;52.030;5.652;2024-02-04T00:51:52;10.00;99.90
43089;DHT22;28709;52.030;5.652;2024-02-04T00:54:18;10.00;99.90
43089;DHT22;28709;52.030;5.652;2024-02-04T00:56:43;10.00;99.90
43089;DHT22;28709;52.030;5.652;2024-02-04T00:59:09;10.00;99.90
43089;DHT22;28709;52.030;5.652;2024-02-04T01:01:35;10.00;99.90
43089;DHT22;28709;52.030;5.652;2024-02-04T01:04:00;10.00;99.90
43089;DHT22;28709;52.030;5.652;2024-02-04T01:06:26;10.00;99.90
43089;DHT22;28709;52.030;5.652;2024-02-04T01:08:53;10.00;99.90
43089;DHT22;28709;52.030;5.652;2024-02-04T01:11:19;10.00;99.90
43089;DHT22;28709;52.030;5.652;2024-02-04T01:13:44;10.10;99.90
43089;DHT22;28709;52.030;5.652;2024-02-04T01:16:10;10.10;99.90
43089;DHT22;28709;52.030;5.652;2024-02-04T01:18:35;10.10;99.90
43089;DHT22;28709;52.030;5.652;2024-02-04T01:21:01;10.10;99.90
43089;DHT22;28709;52.030;5.652;2024-02-04T01:23:27;10.10;99.90
43089;DHT22;28709;52.030;5.652;2024-02-04T01:25:52;10.10;99.90
43089;DHT22;28709;52.030;5.652;2024-02-04T01:28:18;10.10;99.90
43089;DHT22;28709;52.030;5.652;2024-02-04T01:30:43;10.10;99.90
43089;DHT22;28709;52.030;5.652;2024-02-04T01:33:09;10.10;99.90
43089;DHT22;28709;52.030;5.652;2024-02-04T01:35:35;10.10;99.90
43089;DHT22;28709;52.030;5.652;2024-02-04T01:38:00;10.00;99.90
43089;DHT22;28709;52.030;5.652;2024-02-04T01:40:26;10.10;99.90
43089;DHT22;28709;52.030;5.652;2024-02-04T01:42:52;10.10;99.90
43089;DHT22;28709;52.030;5.652;2024-02-04T01:45:17;10.00;99.90
43089;DHT22;28709;52.030;5.652;2024-02-04T01:47:43;10.10;99.90
43089;DHT22;28709;52.030;5.652;2024-02-04T01:50:09;10.10;99.90
43089;DHT22;28709;52.030;5.652;2024-02-04T01:52:37;10.10;99.90
43089;DHT22;28709;52.030;5.652;2024-02-04T01:55:05;10.10;99.90
43089;DHT22;28709;52.030;5.652;2024-02-04T01:57:34;10.10;99.90
43089;DHT22;28709;52.030;5.652;2024-02-04T02:00:03;10.10;99.90
43089;DHT22;28709;52.030;5.652;2024-02-04T02:02:30;10.00;99.90
43089;DHT22;28709;52.030;5.652;2024-02-04T02:04:57;10.00;99.90
43089;DHT22;28709;52.030;5.652;2024-02-04T02:07:23;10.10;99.90
43089;DHT22;28709;52.030;5.652;2024-02-04T02:09:53;10.10;99.90
43089;DHT22;28709;52.030;5.652;2024-02-04T02:12:24;10.00;99.90
43089;DHT22;28709;52.030;5.652;2024-02-04T02:14:58;10.00;99.90
43089;DHT22;28709;52.030;5.652;2024-02-04T02:17:31;10.00;99.90
43089;DHT22;28709;52.030;5.652;2024-02-04T02:20:04;10.00;99.90
43089;DHT22;28709;52.030;5.652;2024-02-04T02:22:50;10.00;99.90
43089;DHT22;28709;52.030;5.652;2024-02-04T02:25:19;10.00;99.90
43089;DHT22;28709;52.030;5.652;2024-02-04T02:27:49;10.00;99.90
43089;DHT22;28709;52.030;5.652;2024-02-04T02:30:15;10.00;99.90
43089;DHT22;28709;52.030;5.652;2024-02-04T02:32:43;10.00;99.90
43089;DHT22;28709;52.030;5.652;2024-02-04T02:35:09;10.00;99.90
43089;DHT22;28709;52.030;5.652;2024-02-04T02:37:45;9.90;99.90
43089;DHT22;28709;52.030;5.652;2024-02-04T02:40:29;9.90;99.90
43089;DHT22;28709;52.030;5.652;2024-02-04T02:42:57;9.90;99.90
43089;DHT22;28709;52.030;5.652;2024-02-04T02:45:26;9.90;99.90
43089;DHT22;28709;52.030;5.652;2024-02-04T02:47:52;9.90;99.90
43089;DHT22;28709;52.030;5.652;2024-02-04T02:50:19;9.90;99.90
43089;DHT22;28709;52.030;5.652;2024-02-04T02:52:45;9.90;99.90
43089;DHT22;28709;52.030;5.652;2024-02-04T02:55:11;9.80;99.90
43089;DHT22;28709;52.030;5.652;2024-02-04T02:57:37;9.80;99.90
43089;DHT22;28709;52.030;5.652;2024-02-04T03:00:02;9.80;99.90
43089;DHT22;28709;52.030;5.652;2024-02-04T03:02:31;9.80;99.90
43089;DHT22;28709;52.030;5.652;2024-02-04T03:04:56;9.80;99.90
43089;DHT22;28709;52.030;5.652;2024-02-04T03:07:22;9.80;99.90
43089;DHT22;28709;52.030;5.652;2024-02-04T03:09:48;9.80;99.90
43089;DHT22;28709;52.030;5.652;2024-02-04T03:12:13;9.80;99.90
43089;DHT22;28709;52.030;5.652;2024-02-04T03:14:39;9.80;99.90
43089;DHT22;28709;52.030;5.652;2024-02-04T03:17:05;9.80;99.90
43089;DHT22;28709;52.030;5.652;2024-02-04T03:19:30;9.80;99.90
43089;DHT22;28709;52.030;5.652;2024-02-04T03:21:56;9.80;99.90
43089;DHT22;28709;52.030;5.652;2024-02-04T03:24:21;9.80;99.90
43089;DHT22;28709;52.030;5.652;2024-02-04T03:26:47;9.80;99.90
43089;DHT22;28709;52.030;5.652;2024-02-04T03:29:13;9.80;99.90
43089;DHT22;28709;52.030;5.652;2024-02-04T03:31:38;9.80;99.90
43089;DHT22;28709;52.030;5.652;2024-02-04T03:34:04;9.80;99.90
43089;DHT22;28709;52.030;5.652;2024-02-04T03:36:31;9.80;99.90
43089;DHT22;28709;52.030;5.652;2024-02-04T03:38:57;9.80;99.90
43089;DHT22;28709;52.030;5.652;2024-02-04T03:41:22;9.70;99.90
43089;DHT22;28709;52.030;5.652;2024-02-04T03:43:48;9.70;99.90
43089;DHT22;28709;52.030;5.652;2024-02-04T03:46:15;9.70;99.90
43089;DHT22;28709;52.030;5.652;2024-02-04T03:48:41;9.70;99.90
43089;DHT22;28709;52.030;5.652;2024-02-04T03:51:07;9.70;99.90
43089;DHT22;28709;52.030;5.652;2024-02-04T03:53:33;9.60;99.90
43089;DHT22;28709;52.030;5.652;2024-02-04T03:55:59;9.60;99.90
43089;DHT22;28709;52.030;5.652;2024-02-04T03:58:24;9.60;99.90
43089;DHT22;28709;52.030;5.652;2024-02-04T04:00:57;9.60;99.90
43089;DHT22;28709;52.030;5.652;2024-02-04T04:03:23;9.60;99.90
43089;DHT22;28709;52.030;5.652;2024-02-04T04:05:49;9.60;99.90
43089;DHT22;28709;52.030;5.652;2024-02-04T04:08:15;9.60;99.90
43089;DHT22;28709;52.030;5.652;2024-02-04T04:10:40;9.60;99.90
43089;DHT22;28709;52.030;5.652;2024-02-04T04:13:06;9.60;99.90
43089;DHT22;28709;52.030;5.652;2024-02-04T04:15:31;9.60;99.90
43089;DHT22;28709;52.030;5.652;2024-02-04T04:17:57;9.60;99.90
43089;DHT22;28709;52.030;5.652;2024-02-04T04:20:23;9.60;99.90
43089;DHT22;28709;52.030;5.652;2024-02-04T04:22:48;9.60;99.90
43089;DHT22;28709;52.030;5.652;2024-02-04T04:25:14;9.60;99.90
43089;DHT22;28709;52.030;5.652;2024-02-04T04:27:40;9.60;99.90
43089;DHT22;28709;52.030;5.652;2024-02-04T04:30:06;9.60;99.90
43089;DHT22;28709;52.030;5.652;2024-02-04T04:32:31;9.60;99.90
43089;DHT22;28709;52.030;5.652;2024-02-04T04:34:57;9.60;99.90
43089;DHT22;28709;52.030;5.652;2024-02-04T04:37:23;9.60;99.90
43089;DHT22;28709;52.030;5.652;2024-02-04T04:39:49;9.60;99.90
43089;DHT22;28709;52.030;5.652;2024-02-04T04:42:14;9.50;99.90
43089;DHT22;28709;52.030;5.652;2024-02-04T04:44:40;9.50;99.90
43089;DHT22;28709;52.030;5.652;2024-02-04T04:47:06;9.40;99.90
43089;DHT22;28709;52.030;5.652;2024-02-04T04:49:31;9.40;99.90
43089;DHT22;28709;52.030;5.652;2024-02-04T04:51:57;9.40;99.90
43089;DHT22;28709;52.030;5.652;2024-02-04T04:54:23;9.30;99.90
43089;DHT22;28709;52.030;5.652;2024-02-04T04:56:48;9.30;99.90
43089;DHT22;28709;52.030;5.652;2024-02-04T04:59:15;9.20;99.90
43089;DHT22;28709;52.030;5.652;2024-02-04T05:01:50;9.20;99.90
43089;DHT22;28709;52.030;5.652;2024-02-04T05:04:16;9.20;99.90
43089;DHT22;28709;52.030;5.652;2024-02-04T05:06:44;9.20;99.90
43089;DHT22;28709;52.030;5.652;2024-02-04T05:09:10;9.20;99.90
43089;DHT22;28709;52.030;5.652;2024-02-04T05:11:35;9.10;99.90
43089;DHT22;28709;52.030;5.652;2024-02-04T05:14:01;9.10;99.90
43089;DHT22;28709;52.030;5.652;2024-02-04T05:16:27;9.10;99.90
43089;DHT22;28709;52.030;5.652;2024-02-04T05:18:52;9.10;99.90
43089;DHT22;28709;52.030;5.652;2024-02-04T05:21:18;9.10;99.90
43089;DHT22;28709;52.030;5.652;2024-02-04T05:23:44;9.10;99.90
43089;DHT22;28709;52.030;5.652;2024-02-04T05:26:10;9.10;99.90
43089;DHT22;28709;52.030;5.652;2024-02-04T05:28:35;9.20;99.90
43089;DHT22;28709;52.030;5.652;2024-02-04T05:31:01;9.10;99.90
43089;DHT22;28709;52.030;5.652;2024-02-04T05:33:28;9.20;99.90
43089;DHT22;28709;52.030;5.652;2024-02-04T05:35:53;9.10;99.90
43089;DHT22;28709;52.030;5.652;2024-02-04T05:38:20;9.10;99.90
43089;DHT22;28709;52.030;5.652;2024-02-04T05:40:46;9.20;99.90
43089;DHT22;28709;52.030;5.652;2024-02-04T05:43:12;9.20;99.90
43089;DHT22;28709;52.030;5.652;2024-02-04T05:45:37;9.20;99.90
43089;DHT22;28709;52.030;5.652;2024-02-04T05:48:07;9.20;99.90
43089;DHT22;28709;52.030;5.652;2024-02-04T05:50:32;9.20;99.90
43089;DHT22;28709;52.030;5.652;2024-02-04T05:52:58;9.20;99.90
43089;DHT22;28709;52.030;5.652;2024-02-04T05:55:23;9.20;99.90
43089;DHT22;28709;52.030;5.652;2024-02-04T05:57:49;9.20;99.90
43089;DHT22;28709;52.030;5.652;2024-02-04T06:00:15;9.30;99.90
43089;DHT22;28709;52.030;5.652;2024-02-04T06:02:41;9.30;99.90
43089;DHT22;28709;52.030;5.652;2024-02-04T06:05:12;9.30;99.90
43089;DHT22;28709;52.030;5.652;2024-02-04T06:07:37;9.30;99.90
43089;DHT22;28709;52.030;5.652;2024-02-04T06:10:03;9.20;99.90
43089;DHT22;28709;52.030;5.652;2024-02-04T06:12:29;9.30;99.90
43089;DHT22;28709;52.030;5.652;2024-02-04T06:14:55;9.20;99.90
43089;DHT22;28709;52.030;5.652;2024-02-04T06:17:21;9.20;99.90
43089;DHT22;28709;52.030;5.652;2024-02-04T06:19:46;9.10;99.90
43089;DHT22;28709;52.030;5.652;2024-02-04T06:22:13;9.10;99.90
43089;DHT22;28709;52.030;5.652;2024-02-04T06:24:39;9.10;99.90
43089;DHT22;28709;52.030;5.652;2024-02-04T06:27:07;9.10;99.90
43089;DHT22;28709;52.030;5.652;2024-02-04T06:29:33;9.10;99.90
43089;DHT22;28709;52.030;5.652;2024-02-04T06:31:59;9.10;99.90
43089;DHT22;28709;52.030;5.652;2024-02-04T06:34:25;9.10;99.90
43089;DHT22;28709;52.030;5.652;2024-02-04T06:36:50;9.10;99.90
43089;DHT22;28709;52.030;5.652;2024-02-04T06:39:16;9.10;99.90
43089;DHT22;28709;52.030;5.652;2024-02-04T06:41:42;9.10;99.90
43089;DHT22;28709;52.030;5.652;2024-02-04T06:44:08;9.20;99.90
43089;DHT22;28709;52.030;5.652;2024-02-04T06:46:33;9.20;99.90
43089;DHT22;28709;52.030;5.652;2024-02-04T06:48:59;9.20;99.90
43089;DHT22;28709;52.030;5.652;2024-02-04T06:51:25;9.20;99.90
43089;DHT22;28709;52.030;5.652;2024-02-04T06:53:50;9.20;99.90
43089;DHT22;28709;52.030;5.652;2024-02-04T06:56:16;9.30;99.90
43089;DHT22;28709;52.030;5.652;2024-02-04T06:58:42;9.30;99.90
43089;DHT22;28709;52.030;5.652;2024-02-04T07:01:08;9.30;99.90
43089;DHT22;28709;52.030;5.652;2024-02-04T07:03:34;9.30;99.90
43089;DHT22;28709;52.030;5.652;2024-02-04T07:06:00;9.30;99.90
43089;DHT22;28709;52.030;5.652;2024-02-04T07:08:26;9.40;99.90
43089;DHT22;28709;52.030;5.652;2024-02-04T07:10:52;9.40;99.90
43089;DHT22;28709;52.030;5.652;2024-02-04T07:13:18;9.40;99.90
43089;DHT22;28709;52.030;5.652;2024-02-04T07:15:44;9.50;99.90
43089;DHT22;28709;52.030;5.652;2024-02-04T07:18:10;9.50;99.90
43089;DHT22;28709;52.030;5.652;2024-02-04T07:20:37;9.50;99.90
43089;DHT22;28709;52.030;5.652;2024-02-04T07:23:03;9.50;99.90
43089;DHT22;28709;52.030;5.652;2024-02-04T07:25:29;9.60;99.90
43089;DHT22;28709;52.030;5.652;2024-02-04T07:27:54;9.60;99.90
43089;DHT22;28709;52.030;5.652;2024-02-04T07:30:21;9.60;99.90
43089;DHT22;28709;52.030;5.652;2024-02-04T07:32:46;9.60;99.90
43089;DHT22;28709;52.030;5.652;2024-02-04T07:35:12;9.60;99.90
43089;DHT22;28709;52.030;5.652;2024-02-04T07:37:38;9.70;99.90
43089;DHT22;28709;52.030;5.652;2024-02-04T07:40:04;9.70;99.90
43089;DHT22;28709;52.030;5.652;2024-02-04T07:42:33;9.70;99.90
43089;DHT22;28709;52.030;5.652;2024-02-04T07:44:58;9.70;99.90
43089;DHT22;28709;52.030;5.652;2024-02-04T07:47:24;9.80;99.90
43089;DHT22;28709;52.030;5.652;2024-02-04T07:49:51;9.80;99.90
43089;DHT22;28709;52.030;5.652;2024-02-04T07:52:17;9.80;99.90
43089;DHT22;28709;52.030;5.652;2024-02-04T07:54:42;9.80;99.90
43089;DHT22;28709;52.030;5.652;2024-02-04T07:57:11;9.80;99.90
43089;DHT22;28709;52.030;5.652;2024-02-04T07:59:37;9.80;99.90
43089;DHT22;28709;52.030;5.652;2024-02-04T08:02:03;9.90;99.90
43089;DHT22;28709;52.030;5.652;2024-02-04T08:04:28;9.90;99.90
43089;DHT22;28709;52.030;5.652;2024-02-04T08:06:54;9.90;99.90
43089;DHT22;28709;52.030;5.652;2024-02-04T08:09:19;9.90;99.90
43089;DHT22;28709;52.030;5.652;2024-02-04T08:11:46;9.90;99.90
43089;DHT22;28709;52.030;5.652;2024-02-04T08:14:12;9.90;99.90
43089;DHT22;28709;52.030;5.652;2024-02-04T08:16:39;9.90;99.90
43089;DHT22;28709;52.030;5.652;2024-02-04T08:19:05;9.90;99.90
43089;DHT22;28709;52.030;5.652;2024-02-04T08:21:32;9.90;99.90
43089;DHT22;28709;52.030;5.652;2024-02-04T08:23:58;9.90;99.90
43089;DHT22;28709;52.030;5.652;2024-02-04T08:26:24;10.00;99.90
43089;DHT22;28709;52.030;5.652;2024-02-04T08:28:50;10.00;99.90
43089;DHT22;28709;52.030;5.652;2024-02-04T08:31:16;10.00;99.90
43089;DHT22;28709;52.030;5.652;2024-02-04T08:33:42;10.00;99.90
43089;DHT22;28709;52.030;5.652;2024-02-04T08:36:08;10.00;99.90
43089;DHT22;28709;52.030;5.652;2024-02-04T08:38:36;9.90;99.90
43089;DHT22;28709;52.030;5.652;2024-02-04T08:41:03;9.90;99.90
43089;DHT22;28709;52.030;5.652;2024-02-04T08:43:28;9.90;99.90
43089;DHT22;28709;52.030;5.652;2024-02-04T08:45:54;10.00;99.90
43089;DHT22;28709;52.030;5.652;2024-02-04T08:48:20;9.90;99.90
43089;DHT22;28709;52.030;5.652;2024-02-04T08:50:45;9.90;99.90
43089;DHT22;28709;52.030;5.652;2024-02-04T08:53:11;9.90;99.90
43089;DHT22;28709;52.030;5.652;2024-02-04T08:55:37;9.90;99.90
43089;DHT22;28709;52.030;5.652;2024-02-04T08:58:02;9.90;99.90
43089;DHT22;28709;52.030;5.652;2024-02-04T09:00:28;9.90;99.90
43089;DHT22;28709;52.030;5.652;2024-02-04T09:02:53;9.90;99.90
43089;DHT22;28709;52.030;5.652;2024-02-04T09:05:19;9.90;99.90
43089;DHT22;28709;52.030;5.652;2024-02-04T09:07:45;9.90;99.90
43089;DHT22;28709;52.030;5.652;2024-02-04T09:10:11;10.00;99.90
43089;DHT22;28709;52.030;5.652;2024-02-04T09:12:38;9.90;99.90
43089;DHT22;28709;52.030;5.652;2024-02-04T09:15:04;10.00;99.90
43089;DHT22;28709;52.030;5.652;2024-02-04T09:17:30;10.00;99.90
43089;DHT22;28709;52.030;5.652;2024-02-04T09:19:58;10.00;99.90
43089;DHT22;28709;52.030;5.652;2024-02-04T09:22:24;10.00;99.90
43089;DHT22;28709;52.030;5.652;2024-02-04T09:24:50;10.00;99.90
43089;DHT22;28709;52.030;5.652;2024-02-04T09:27:15;10.10;99.90
43089;DHT22;28709;52.030;5.652;2024-02-04T09:29:41;10.10;99.90
43089;DHT22;28709;52.030;5.652;2024-02-04T09:32:06;10.20;99.90
43089;DHT22;28709;52.030;5.652;2024-02-04T09:34:33;10.20;99.90
43089;DHT22;28709;52.030;5.652;2024-02-04T09:36:59;10.20;99.90
43089;DHT22;28709;52.030;5.652;2024-02-04T09:39:24;10.30;99.90
43089;DHT22;28709;52.030;5.652;2024-02-04T09:41:50;10.30;99.90
43089;DHT22;28709;52.030;5.652;2024-02-04T09:44:16;10.30;99.90
43089;DHT22;28709;52.030;5.652;2024-02-04T09:46:42;10.40;99.90
43089;DHT22;28709;52.030;5.652;2024-02-04T09:49:09;10.40;99.90
43089;DHT22;28709;52.030;5.652;2024-02-04T09:51:35;10.50;99.90
43089;DHT22;28709;52.030;5.652;2024-02-04T09:54:03;10.50;99.90
43089;DHT22;28709;52.030;5.652;2024-02-04T09:56:32;10.50;99.90
43089;DHT22;28709;52.030;5.652;2024-02-04T09:58:58;10.60;99.90
43089;DHT22;28709;52.030;5.652;2024-02-04T10:01:25;10.60;99.90
43089;DHT22;28709;52.030;5.652;2024-02-04T10:03:51;10.70;99.90
43089;DHT22;28709;52.030;5.652;2024-02-04T10:06:17;10.70;99.90
43089;DHT22;28709;52.030;5.652;2024-02-04T10:08:43;10.70;99.90
43089;DHT22;28709;52.030;5.652;2024-02-04T10:11:09;10.70;99.90
43089;DHT22;28709;52.030;5.652;2024-02-04T10:13:49;10.80;99.90
43089;DHT22;28709;52.030;5.652;2024-02-04T10:16:18;10.80;99.90
43089;DHT22;28709;52.030;5.652;2024-02-04T10:18:44;10.80;99.90
43089;DHT22;28709;52.030;5.652;2024-02-04T10:21:16;10.80;99.90
43089;DHT22;28709;52.030;5.652;2024-02-04T10:23:43;10.80;99.90
43089;DHT22;28709;52.030;5.652;2024-02-04T10:26:09;10.80;99.90
43089;DHT22;28709;52.030;5.652;2024-02-04T10:28:37;10.80;99.90
43089;DHT22;28709;52.030;5.652;2024-02-04T10:31:03;10.80;99.90
43089;DHT22;28709;52.030;5.652;2024-02-04T10:33:32;10.90;99.90
43089;DHT22;28709;52.030;5.652;2024-02-04T10:35:57;10.90;99.90
43089;DHT22;28709;52.030;5.652;2024-02-04T10:38:23;10.90;99.90
43089;DHT22;28709;52.030;5.652;2024-02-04T10:40:54;10.90;99.90
43089;DHT22;28709;52.030;5.652;2024-02-04T10:43:21;10.90;99.90
43089;DHT22;28709;52.030;5.652;2024-02-04T10:45:47;11.00;99.90
43089;DHT22;28709;52.030;5.652;2024-02-04T10:48:19;11.00;99.90
43089;DHT22;28709;52.030;5.652;2024-02-04T10:50:47;11.10;99.90
43089;DHT22;28709;52.030;5.652;2024-02-04T10:53:17;11.10;99.90
43089;DHT22;28709;52.030;5.652;2024-02-04T10:55:46;11.10;99.90
43089;DHT22;28709;52.030;5.652;2024-02-04T10:58:20;11.20;99.90
43089;DHT22;28709;52.030;5.652;2024-02-04T11:04:17;11.20;99.90
43089;DHT22;28709;52.030;5.652;2024-02-04T11:06:44;11.20;99.90
43089;DHT22;28709;52.030;5.652;2024-02-04T11:09:11;11.20;99.90
43089;DHT22;28709;52.030;5.652;2024-02-04T11:11:38;11.20;99.90
43089;DHT22;28709;52.030;5.652;2024-02-04T11:14:08;11.10;99.90
43089;DHT22;28709;52.030;5.652;2024-02-04T11:20:10;11.10;99.90
43089;DHT22;28709;52.030;5.652;2024-02-04T11:25:33;11.10;99.90
43089;DHT22;28709;52.030;5.652;2024-02-04T11:28:02;11.00;99.90
43089;DHT22;28709;52.030;5.652;2024-02-04T11:30:35;10.90;99.90
43089;DHT22;28709;52.030;5.652;2024-02-04T11:33:05;10.80;99.90
43089;DHT22;28709;52.030;5.652;2024-02-04T11:35:34;10.70;99.90
43089;DHT22;28709;52.030;5.652;2024-02-04T11:38:00;10.60;99.90
43089;DHT22;28709;52.030;5.652;2024-02-04T11:40:36;10.50;99.90
43089;DHT22;28709;52.030;5.652;2024-02-04T11:43:12;10.50;99.90
43089;DHT22;28709;52.030;5.652;2024-02-04T11:45:40;10.50;99.90
43089;DHT22;28709;52.030;5.652;2024-02-04T11:48:12;10.40;99.90
43089;DHT22;28709;52.030;5.652;2024-02-04T11:50:39;10.40;99.90
43089;DHT22;28709;52.030;5.652;2024-02-04T11:53:10;10.40;99.90
43089;DHT22;28709;52.030;5.652;2024-02-04T11:55:39;10.40;99.90
43089;DHT22;28709;52.030;5.652;2024-02-04T11:58:05;10.40;99.90
43089;DHT22;28709;52.030;5.652;2024-02-04T12:00:42;10.40;99.90
43089;DHT22;28709;52.030;5.652;2024-02-04T12:03:09;10.30;99.90
43089;DHT22;28709;52.030;5.652;2024-02-04T12:05:35;10.30;99.90
43089;DHT22;28709;52.030;5.652;2024-02-04T12:08:03;10.30;99.90
43089;DHT22;28709;52.030;5.652;2024-02-04T12:10:30;10.30;99.90
43089;DHT22;28709;52.030;5.652;2024-02-04T12:13:00;10.30;99.90
43089;DHT22;28709;52.030;5.652;2024-02-04T12:15:28;10.30;99.90
43089;DHT22;28709;52.030;5.652;2024-02-04T12:17:54;10.30;99.90
43089;DHT22;28709;52.030;5.652;2024-02-04T12:20:19;10.30;99.90
43089;DHT22;28709;52.030;5.652;2024-02-04T12:22:45;10.30;99.90
43089;DHT22;28709;52.030;5.652;2024-02-04T12:25:11;10.40;99.90
43089;DHT22;28709;52.030;5.652;2024-02-04T12:27:37;10.40;99.90
43089;DHT22;28709;52.030;5.652;2024-02-04T12:30:04;10.40;99.90
43089;DHT22;28709;52.030;5.652;2024-02-04T12:32:31;10.40;99.90
43089;DHT22;28709;52.030;5.652;2024-02-04T12:34:56;10.40;99.90
43089;DHT22;28709;52.030;5.652;2024-02-04T12:37:22;10.40;99.90
43089;DHT22;28709;52.030;5.652;2024-02-04T12:39:48;10.50;99.90
43089;DHT22;28709;52.030;5.652;2024-02-04T12:42:16;10.50;99.90
43089;DHT22;28709;52.030;5.652;2024-02-04T12:44:48;10.60;99.90
43089;DHT22;28709;52.030;5.652;2024-02-04T12:47:14;10.60;99.90
43089;DHT22;28709;52.030;5.652;2024-02-04T12:49:43;10.70;99.90
43089;DHT22;28709;52.030;5.652;2024-02-04T12:52:09;10.70;99.90
43089;DHT22;28709;52.030;5.652;2024-02-04T12:54:44;10.80;99.90
43089;DHT22;28709;52.030;5.652;2024-02-04T12:57:21;10.80;99.90
43089;DHT22;28709;52.030;5.652;2024-02-04T12:59:47;10.80;99.90
43089;DHT22;28709;52.030;5.652;2024-02-04T13:02:14;10.80;99.90
43089;DHT22;28709;52.030;5.652;2024-02-04T13:04:41;10.80;99.90
43089;DHT22;28709;52.030;5.652;2024-02-04T13:07:12;10.80;99.90
43089;DHT22;28709;52.030;5.652;2024-02-04T13:09:39;10.80;99.90
43089;DHT22;28709;52.030;5.652;2024-02-04T13:12:08;10.80;99.90
43089;DHT22;28709;52.030;5.652;2024-02-04T13:14:35;10.80;99.90
43089;DHT22;28709;52.030;5.652;2024-02-04T13:17:02;10.80;99.90
43089;DHT22;28709;52.030;5.652;2024-02-04T13:19:35;10.70;99.90
43089;DHT22;28709;52.030;5.652;2024-02-04T13:22:05;10.60;99.90
43089;DHT22;28709;52.030;5.652;2024-02-04T13:24:32;10.60;99.90
43089;DHT22;28709;52.030;5.652;2024-02-04T13:26:58;10.50;99.90
43089;DHT22;28709;52.030;5.652;2024-02-04T13:29:26;10.50;99.90
43089;DHT22;28709;52.030;5.652;2024-02-04T13:31:51;10.50;99.90
43089;DHT22;28709;52.030;5.652;2024-02-04T13:34:17;10.50;99.90
43089;DHT22;28709;52.030;5.652;2024-02-04T13:36:43;10.50;99.90
43089;DHT22;28709;52.030;5.652;2024-02-04T13:39:09;10.50;99.90
43089;DHT22;28709;52.030;5.652;2024-02-04T13:41:35;10.60;99.90
43089;DHT22;28709;52.030;5.652;2024-02-04T13:44:01;10.60;99.90
43089;DHT22;28709;52.030;5.652;2024-02-04T13:46:27;10.70;99.90
43089;DHT22;28709;52.030;5.652;2024-02-04T13:48:53;10.80;99.90
43089;DHT22;28709;52.030;5.652;2024-02-04T13:51:18;10.80;99.90
43089;DHT22;28709;52.030;5.652;2024-02-04T13:53:44;10.80;99.90
43089;DHT22;28709;52.030;5.652;2024-02-04T13:56:09;10.80;99.90
43089;DHT22;28709;52.030;5.652;2024-02-04T13:58:35;10.90;99.90
43089;DHT22;28709;52.030;5.652;2024-02-04T14:01:01;10.90;99.90
43089;DHT22;28709;52.030;5.652;2024-02-04T14:03:26;10.90;99.90
43089;DHT22;28709;52.030;5.652;2024-02-04T14:05:52;10.90;99.90
43089;DHT22;28709;52.030;5.652;2024-02-04T14:08:20;11.00;99.90
43089;DHT22;28709;52.030;5.652;2024-02-04T14:10:46;11.00;99.90
43089;DHT22;28709;52.030;5.652;2024-02-04T14:13:12;11.00;99.90
43089;DHT22;28709;52.030;5.652;2024-02-04T14:15:38;11.10;99.90
43089;DHT22;28709;52.030;5.652;2024-02-04T14:18:04;11.00;99.90
43089;DHT22;28709;52.030;5.652;2024-02-04T14:20:31;11.00;99.90
43089;DHT22;28709;52.030;5.652;2024-02-04T14:22:56;11.00;99.90
43089;DHT22;28709;52.030;5.652;2024-02-04T14:25:23;11.00;99.90
43089;DHT22;28709;52.030;5.652;2024-02-04T14:27:50;11.00;99.90
43089;DHT22;28709;52.030;5.652;2024-02-04T14:30:16;11.00;99.90
43089;DHT22;28709;52.030;5.652;2024-02-04T14:32:41;11.00;99.90
43089;DHT22;28709;52.030;5.652;2024-02-04T14:35:08;11.00;99.90
43089;DHT22;28709;52.030;5.652;2024-02-04T14:37:35;10.90;99.90
43089;DHT22;28709;52.030;5.652;2024-02-04T14:40:01;11.00;99.90
43089;DHT22;28709;52.030;5.652;2024-02-04T14:42:29;10.90;99.90
43089;DHT22;28709;52.030;5.652;2024-02-04T14:44:55;10.90;99.90
43089;DHT22;28709;52.030;5.652;2024-02-04T14:47:20;10.90;99.90
43089;DHT22;28709;52.030;5.652;2024-02-04T14:49:46;10.90;99.90
43089;DHT22;28709;52.030;5.652;2024-02-04T14:52:12;11.00;99.90
43089;DHT22;28709;52.030;5.652;2024-02-04T14:54:37;10.90;99.90
43089;DHT22;28709;52.030;5.652;2024-02-04T14:57:05;11.00;99.90
43089;DHT22;28709;52.030;5.652;2024-02-04T14:59:31;11.00;99.90
43089;DHT22;28709;52.030;5.652;2024-02-04T15:02:03;10.90;99.90
43089;DHT22;28709;52.030;5.652;2024-02-04T15:04:31;11.00;99.90
43089;DHT22;28709;52.030;5.652;2024-02-04T15:06:57;11.00;99.90
43089;DHT22;28709;52.030;5.652;2024-02-04T15:09:23;11.00;99.90
43089;DHT22;28709;52.030;5.652;2024-02-04T15:11:49;11.00;99.90
43089;DHT22;28709;52.030;5.652;2024-02-04T15:14:15;11.00;99.90
43089;DHT22;28709;52.030;5.652;2024-02-04T15:16:42;11.00;99.90
43089;DHT22;28709;52.030;5.652;2024-02-04T15:19:08;11.00;99.90
43089;DHT22;28709;52.030;5.652;2024-02-04T15:21:34;11.00;99.90
43089;DHT22;28709;52.030;5.652;2024-02-04T15:24:01;11.00;99.90
43089;DHT22;28709;52.030;5.652;2024-02-04T15:26:31;11.00;99.90
43089;DHT22;28709;52.030;5.652;2024-02-04T15:28:59;11.00;99.90
43089;DHT22;28709;52.030;5.652;2024-02-04T15:31:25;11.00;99.90
43089;DHT22;28709;52.030;5.652;2024-02-04T15:33:54;11.00;99.90
43089;DHT22;28709;52.030;5.652;2024-02-04T15:36:19;11.00;99.90
43089;DHT22;28709;52.030;5.652;2024-02-04T15:38:45;11.00;99.90
43089;DHT22;28709;52.030;5.652;2024-02-04T15:41:11;11.00;99.90
43089;DHT22;28709;52.030;5.652;2024-02-04T15:43:36;11.00;99.90